Portada
METAR-TAF:

METAR-TAF

Aeropuertos :

Puerto Suárez, Bolivia

latitud: 18-59S, longitud: 057-49W, altitud: 134 m

Observación

El informe se hizo hace 1 hora y 0 minutos, a las 16:00 UTC
Viento 8 kt del suroeste
Temperatura 22°C
Humedad 73%
Presión 1019 hPa
Visibilidad: 8000 m
Cielo cubierto a una altura de 1500 ft

METAR: SLPS 151600Z 22008KT 8000 OVC015 22/17 Q1019

Hora: 13:00 (17:00 UTC)

Pronóstico

El informe se hizo hace 7 horas y 0 minutos, a las 10:00 UTC
Pronóstico válido del 15 a las 12 UTC al 16 a las 12 UTC
Viento 6 kt del oeste-suroeste
Visibilidad 10 km o más
Nubes dispersas a una altura de 2300 ft
Cielo nuboso a una altura de 7000 ft
Evolucionando progresivamente
del 15 a las 23 UTC al 16 a las 01 UTC

TAF: SLPS 151000Z 1512/1612 24006KT 9999 SCT023 BKN070 TX28/1520Z TN15/1611Z BECMG 1523/1601 NSC

Observaciones y pronósticos meteorológicos de más de 4000 aeropuertos (mensajes METAR y TAF).

Los puntos amarillos y rojos representan las estaciones disponibles.

Ponga el ratón en el punto deseado para ver el nombre de la estación.

Haga clic para ver las observaciones y los pronósticos meteorológicos.

Para cambiar el mapa : haga clic en los botones verdes con una cruz de color negro para hacer un zoom, en el botón verde con un guión para alejar o en las flechas verdes para mapas adyacentes.


METAR-TAF: